sensor_id;sensor_type;location;lat;lon;timestamp;pressure;altitude;pressure_sealevel;temperature;humidity
11936;BME280;6027;48.576;9.180;2023-11-18T00:01:43;97704.38;;;3.96;100.00
11936;BME280;6027;48.576;9.180;2023-11-18T00:04:09;97697.22;;;3.98;100.00
11936;BME280;6027;48.576;9.180;2023-11-18T00:06:44;97707.81;;;3.96;100.00
11936;BME280;6027;48.576;9.180;2023-11-18T00:09:10;97698.28;;;3.95;100.00
11936;BME280;6027;48.576;9.180;2023-11-18T00:11:38;97706.25;;;4.05;100.00
11936;BME280;6027;48.576;9.180;2023-11-18T00:14:04;97705.78;;;4.00;100.00
11936;BME280;6027;48.576;9.180;2023-11-18T00:16:30;97697.69;;;4.03;100.00
11936;BME280;6027;48.576;9.180;2023-11-18T00:18:55;97703.63;;;4.05;100.00
11936;BME280;6027;48.576;9.180;2023-11-18T00:21:21;97713.03;;;4.07;100.00
11936;BME280;6027;48.576;9.180;2023-11-18T00:23:46;97706.84;;;4.08;100.00
11936;BME280;6027;48.576;9.180;2023-11-18T00:26:13;97701.84;;;4.05;100.00
11936;BME280;6027;48.576;9.180;2023-11-18T00:28:39;97702.31;;;4.10;100.00
11936;BME280;6027;48.576;9.180;2023-11-18T00:31:04;97700.41;;;4.12;100.00
11936;BME280;6027;48.576;9.180;2023-11-18T00:33:30;97697.06;;;4.10;100.00
11936;BME280;6027;48.576;9.180;2023-11-18T00:35:56;97702.22;;;4.01;100.00
11936;BME280;6027;48.576;9.180;2023-11-18T00:38:21;97697.44;;;3.95;100.00
11936;BME280;6027;48.576;9.180;2023-11-18T00:40:47;97699.47;;;3.91;100.00
11936;BME280;6027;48.576;9.180;2023-11-18T00:43:12;97706.25;;;3.94;100.00
11936;BME280;6027;48.576;9.180;2023-11-18T00:45:37;97702.34;;;3.99;100.00
11936;BME280;6027;48.576;9.180;2023-11-18T00:48:03;97707.34;;;3.91;100.00
11936;BME280;6027;48.576;9.180;2023-11-18T00:50:30;97701.84;;;3.94;100.00
11936;BME280;6027;48.576;9.180;2023-11-18T00:52:56;97705.56;;;3.92;100.00
11936;BME280;6027;48.576;9.180;2023-11-18T00:55:22;97701.25;;;4.02;100.00
11936;BME280;6027;48.576;9.180;2023-11-18T00:57:47;97699.72;;;3.88;100.00
11936;BME280;6027;48.576;9.180;2023-11-18T01:00:15;97703.16;;;3.89;100.00
11936;BME280;6027;48.576;9.180;2023-11-18T01:02:47;97709.84;;;4.04;100.00
11936;BME280;6027;48.576;9.180;2023-11-18T01:05:14;97694.56;;;4.09;100.00
11936;BME280;6027;48.576;9.180;2023-11-18T01:07:41;97700.44;;;4.01;100.00
11936;BME280;6027;48.576;9.180;2023-11-18T01:10:07;97695.88;;;4.14;100.00
11936;BME280;6027;48.576;9.180;2023-11-18T01:12:35;97696.78;;;4.25;100.00
11936;BME280;6027;48.576;9.180;2023-11-18T01:15:00;97698.72;;;4.23;100.00
11936;BME280;6027;48.576;9.180;2023-11-18T01:17:26;97703.03;;;4.12;100.00
11936;BME280;6027;48.576;9.180;2023-11-18T01:19:51;97699.00;;;3.97;100.00
11936;BME280;6027;48.576;9.180;2023-11-18T01:22:17;97703.88;;;4.02;100.00
11936;BME280;6027;48.576;9.180;2023-11-18T01:24:44;97705.53;;;4.14;100.00
11936;BME280;6027;48.576;9.180;2023-11-18T01:27:09;97706.97;;;4.18;100.00
11936;BME280;6027;48.576;9.180;2023-11-18T01:29:36;97707.44;;;4.12;100.00
11936;BME280;6027;48.576;9.180;2023-11-18T01:32:02;97714.81;;;4.18;100.00
11936;BME280;6027;48.576;9.180;2023-11-18T01:34:34;97720.53;;;4.12;100.00
11936;BME280;6027;48.576;9.180;2023-11-18T01:36:59;97719.97;;;3.97;100.00
11936;BME280;6027;48.576;9.180;2023-11-18T01:39:25;97725.19;;;3.97;100.00
11936;BME280;6027;48.576;9.180;2023-11-18T01:41:51;97731.88;;;4.01;100.00
11936;BME280;6027;48.576;9.180;2023-11-18T01:44:17;97730.22;;;4.00;100.00
11936;BME280;6027;48.576;9.180;2023-11-18T01:46:45;97737.59;;;3.95;100.00
11936;BME280;6027;48.576;9.180;2023-11-18T01:49:12;97734.72;;;3.87;100.00
11936;BME280;6027;48.576;9.180;2023-11-18T01:51:41;97727.81;;;3.97;100.00
11936;BME280;6027;48.576;9.180;2023-11-18T01:54:07;97733.28;;;3.94;100.00
11936;BME280;6027;48.576;9.180;2023-11-18T01:56:34;97730.91;;;3.91;100.00
11936;BME280;6027;48.576;9.180;2023-11-18T01:58:59;97716.16;;;3.90;100.00
11936;BME280;6027;48.576;9.180;2023-11-18T02:01:27;97722.59;;;3.97;100.00
11936;BME280;6027;48.576;9.180;2023-11-18T02:03:53;97718.06;;;3.99;100.00
11936;BME280;6027;48.576;9.180;2023-11-18T02:06:18;97718.88;;;4.11;100.00
11936;BME280;6027;48.576;9.180;2023-11-18T02:08:44;97717.31;;;4.20;100.00
11936;BME280;6027;48.576;9.180;2023-11-18T02:11:45;97717.56;;;4.16;100.00
11936;BME280;6027;48.576;9.180;2023-11-18T02:14:14;97727.09;;;4.06;100.00
11936;BME280;6027;48.576;9.180;2023-11-18T02:16:44;97723.75;;;4.04;100.00
11936;BME280;6027;48.576;9.180;2023-11-18T02:19:19;97712.81;;;3.99;100.00
11936;BME280;6027;48.576;9.180;2023-11-18T02:21:47;97720.19;;;4.05;100.00
11936;BME280;6027;48.576;9.180;2023-11-18T02:24:45;97719.00;;;3.98;100.00
11936;BME280;6027;48.576;9.180;2023-11-18T02:27:11;97722.94;;;4.04;100.00
11936;BME280;6027;48.576;9.180;2023-11-18T02:29:45;97724.97;;;4.00;100.00
11936;BME280;6027;48.576;9.180;2023-11-18T02:32:23;97710.19;;;3.99;100.00
11936;BME280;6027;48.576;9.180;2023-11-18T02:35:10;97714.81;;;4.07;100.00
11936;BME280;6027;48.576;9.180;2023-11-18T02:37:44;97720.19;;;4.05;100.00
11936;BME280;6027;48.576;9.180;2023-11-18T02:40:37;97717.09;;;4.00;100.00
11936;BME280;6027;48.576;9.180;2023-11-18T02:43:07;97721.59;;;4.09;100.00
11936;BME280;6027;48.576;9.180;2023-11-18T02:45:35;97715.19;;;4.13;100.00
11936;BME280;6027;48.576;9.180;2023-11-18T02:48:02;97718.88;;;4.11;100.00
11936;BME280;6027;48.576;9.180;2023-11-18T02:50:28;97707.59;;;3.99;100.00
11936;BME280;6027;48.576;9.180;2023-11-18T02:52:54;97706.72;;;4.10;100.00
11936;BME280;6027;48.576;9.180;2023-11-18T02:55:20;97707.53;;;4.22;100.00
11936;BME280;6027;48.576;9.180;2023-11-18T02:57:49;97714.06;;;4.27;100.00
11936;BME280;6027;48.576;9.180;2023-11-18T03:00:17;97713.13;;;4.28;100.00
11936;BME280;6027;48.576;9.180;2023-11-18T03:02:49;97708.72;;;4.29;100.00
11936;BME280;6027;48.576;9.180;2023-11-18T03:05:17;97706.09;;;4.29;100.00
11936;BME280;6027;48.576;9.180;2023-11-18T03:07:44;97704.06;;;4.32;100.00
11936;BME280;6027;48.576;9.180;2023-11-18T03:10:12;97715.63;;;4.30;100.00
11936;BME280;6027;48.576;9.180;2023-11-18T03:12:49;97718.88;;;4.22;100.00
11936;BME280;6027;48.576;9.180;2023-11-18T03:15:16;97713.28;;;4.15;100.00
11936;BME280;6027;48.576;9.180;2023-11-18T03:17:48;97709.47;;;4.08;100.00
11936;BME280;6027;48.576;9.180;2023-11-18T03:20:16;97713.63;;;4.11;100.00
11936;BME280;6027;48.576;9.180;2023-11-18T03:22:46;97713.03;;;4.07;100.00
11936;BME280;6027;48.576;9.180;2023-11-18T03:25:13;97701.84;;;4.05;100.00
11936;BME280;6027;48.576;9.180;2023-11-18T03:27:39;97707.56;;;4.10;100.00
11936;BME280;6027;48.576;9.180;2023-11-18T03:30:06;97708.03;;;4.04;100.00
11936;BME280;6027;48.576;9.180;2023-11-18T03:32:34;97713.88;;;4.08;100.00
11936;BME280;6027;48.576;9.180;2023-11-18T03:35:00;97702.47;;;3.98;100.00
11936;BME280;6027;48.576;9.180;2023-11-18T03:37:26;97700.06;;;3.95;100.00
11936;BME280;6027;48.576;9.180;2023-11-18T03:39:52;97697.81;;;3.90;100.00
11936;BME280;6027;48.576;9.180;2023-11-18T03:42:17;97713.31;;;3.82;100.00
11936;BME280;6027;48.576;9.180;2023-11-18T03:44:43;97713.53;;;3.90;100.00
11936;BME280;6027;48.576;9.180;2023-11-18T03:47:09;97708.06;;;3.93;100.00
11936;BME280;6027;48.576;9.180;2023-11-18T03:49:34;97714.88;;;3.85;100.00
11936;BME280;6027;48.576;9.180;2023-11-18T03:51:59;97717.09;;;3.89;100.00
11936;BME280;6027;48.576;9.180;2023-11-18T03:54:25;97722.44;;;3.88;100.00
11936;BME280;6027;48.576;9.180;2023-11-18T03:56:52;97723.41;;;3.87;100.00
11936;BME280;6027;48.576;9.180;2023-11-18T03:59:17;97726.38;;;3.71;100.00
11936;BME280;6027;48.576;9.180;2023-11-18T04:01:43;97722.59;;;3.75;100.00
11936;BME280;6027;48.576;9.180;2023-11-18T04:04:19;97726.16;;;3.74;100.00
11936;BME280;6027;48.576;9.180;2023-11-18T04:07:05;97731.84;;;3.68;100.00
11936;BME280;6027;48.576;9.180;2023-11-18T04:09:51;97725.66;;;3.69;100.00
11936;BME280;6027;48.576;9.180;2023-11-18T04:12:17;97724.50;;;3.73;100.00
11936;BME280;6027;48.576;9.180;2023-11-18T04:14:42;97718.19;;;3.75;100.00
11936;BME280;6027;48.576;9.180;2023-11-18T04:17:07;97720.91;;;3.74;100.00
11936;BME280;6027;48.576;9.180;2023-11-18T04:19:34;97722.81;;;3.72;100.00
11936;BME280;6027;48.576;9.180;2023-11-18T04:22:00;97715.19;;;3.69;100.00
11936;BME280;6027;48.576;9.180;2023-11-18T04:24:25;97713.19;;;3.61;100.00
11936;BME280;6027;48.576;9.180;2023-11-18T04:26:51;97720.66;;;3.55;100.00
11936;BME280;6027;48.576;9.180;2023-11-18T04:29:16;97728.06;;;3.61;100.00
11936;BME280;6027;48.576;9.180;2023-11-18T04:31:43;97725.91;;;3.66;100.00
11936;BME280;6027;48.576;9.180;2023-11-18T04:34:08;97727.56;;;3.67;100.00
11936;BME280;6027;48.576;9.180;2023-11-18T04:36:34;97728.78;;;3.63;100.00
11936;BME280;6027;48.576;9.180;2023-11-18T04:38:59;97727.00;;;3.63;100.00
11936;BME280;6027;48.576;9.180;2023-11-18T04:41:25;97725.66;;;3.46;100.00
11936;BME280;6027;48.576;9.180;2023-11-18T04:43:51;97724.69;;;3.36;100.00
11936;BME280;6027;48.576;9.180;2023-11-18T04:46:16;97706.72;;;3.32;100.00
11936;BME280;6027;48.576;9.180;2023-11-18T04:48:42;97709.44;;;3.30;100.00
11936;BME280;6027;48.576;9.180;2023-11-18T04:51:08;97719.94;;;3.41;100.00
11936;BME280;6027;48.576;9.180;2023-11-18T04:53:33;97721.50;;;3.44;100.00
11936;BME280;6027;48.576;9.180;2023-11-18T04:55:59;97719.84;;;3.43;100.00
11936;BME280;6027;48.576;9.180;2023-11-18T04:58:24;97707.59;;;3.43;100.00
11936;BME280;6027;48.576;9.180;2023-11-18T05:00:50;97709.56;;;3.29;100.00
11936;BME280;6027;48.576;9.180;2023-11-18T05:03:18;97722.31;;;3.22;100.00
11936;BME280;6027;48.576;9.180;2023-11-18T05:05:44;97720.03;;;3.18;100.00
11936;BME280;6027;48.576;9.180;2023-11-18T05:08:19;97709.81;;;3.26;100.00
11936;BME280;6027;48.576;9.180;2023-11-18T05:10:48;97719.47;;;3.36;100.00
11936;BME280;6027;48.576;9.180;2023-11-18T05:13:15;97714.00;;;3.39;100.00
11936;BME280;6027;48.576;9.180;2023-11-18T05:15:45;97715.44;;;3.43;100.00
11936;BME280;6027;48.576;9.180;2023-11-18T05:18:12;97715.91;;;3.48;100.00
11936;BME280;6027;48.576;9.180;2023-11-18T05:20:41;97703.06;;;3.57;100.00
11936;BME280;6027;48.576;9.180;2023-11-18T05:23:06;97703.91;;;3.57;100.00
11936;BME280;6027;48.576;9.180;2023-11-18T05:25:43;97709.38;;;3.54;100.00
11936;BME280;6027;48.576;9.180;2023-11-18T05:28:09;97708.41;;;3.55;100.00
11936;BME280;6027;48.576;9.180;2023-11-18T05:30:40;97704.13;;;3.54;100.00
11936;BME280;6027;48.576;9.180;2023-11-18T05:33:06;97704.25;;;3.64;100.00
11936;BME280;6027;48.576;9.180;2023-11-18T05:35:33;97704.50;;;3.72;100.00
11936;BME280;6027;48.576;9.180;2023-11-18T05:38:00;97707.13;;;3.61;100.00
11936;BME280;6027;48.576;9.180;2023-11-18T05:40:28;97714.22;;;3.47;100.00
11936;BME280;6027;48.576;9.180;2023-11-18T05:42:54;97713.78;;;3.65;100.00
11936;BME280;6027;48.576;9.180;2023-11-18T05:45:20;97701.13;;;3.36;100.00
11936;BME280;6027;48.576;9.180;2023-11-18T05:47:57;97708.28;;;3.57;100.00
11936;BME280;6027;48.576;9.180;2023-11-18T05:50:23;97704.97;;;3.55;100.00
11936;BME280;6027;48.576;9.180;2023-11-18T05:52:53;97709.38;;;3.54;100.00
11936;BME280;6027;48.576;9.180;2023-11-18T05:55:19;97714.25;;;3.59;100.00
11936;BME280;6027;48.576;9.180;2023-11-18T05:57:44;97705.06;;;3.53;100.00
11936;BME280;6027;48.576;9.180;2023-11-18T06:00:14;97706.88;;;3.53;100.00
11936;BME280;6027;48.576;9.180;2023-11-18T06:02:41;97706.16;;;3.62;100.00
11936;BME280;6027;48.576;9.180;2023-11-18T06:05:08;97700.69;;;3.54;100.00
11936;BME280;6027;48.576;9.180;2023-11-18T06:07:34;97696.97;;;3.34;100.00
11936;BME280;6027;48.576;9.180;2023-11-18T06:10:00;97696.03;;;3.35;100.00
11936;BME280;6027;48.576;9.180;2023-11-18T06:12:27;97695.66;;;3.28;100.00
11936;BME280;6027;48.576;9.180;2023-11-18T06:14:52;97692.00;;;3.42;100.00
11936;BME280;6027;48.576;9.180;2023-11-18T06:17:17;97691.16;;;3.53;100.00
11936;BME280;6027;48.576;9.180;2023-11-18T06:19:44;97688.56;;;3.64;100.00
11936;BME280;6027;48.576;9.180;2023-11-18T06:22:10;97694.72;;;3.74;100.00
11936;BME280;6027;48.576;9.180;2023-11-18T06:24:36;97701.88;;;3.72;100.00
11936;BME280;6027;48.576;9.180;2023-11-18T06:27:04;97713.19;;;3.72;100.00
11936;BME280;6027;48.576;9.180;2023-11-18T06:29:30;97703.56;;;3.62;100.00
11936;BME280;6027;48.576;9.180;2023-11-18T06:31:56;97698.66;;;3.68;100.00
11936;BME280;6027;48.576;9.180;2023-11-18T06:34:22;97695.09;;;3.58;100.00
11936;BME280;6027;48.576;9.180;2023-11-18T06:36:47;97710.31;;;3.53;100.00
11936;BME280;6027;48.576;9.180;2023-11-18T06:39:12;97700.44;;;3.68;100.00
11936;BME280;6027;48.576;9.180;2023-11-18T06:41:38;97708.53;;;3.76;100.00
11936;BME280;6027;48.576;9.180;2023-11-18T06:44:13;97718.75;;;3.68;100.00
11936;BME280;6027;48.576;9.180;2023-11-18T06:46:43;97713.19;;;3.61;100.00
11936;BME280;6027;48.576;9.180;2023-11-18T06:49:09;97719.50;;;3.59;100.00
11936;BME280;6027;48.576;9.180;2023-11-18T06:51:41;97713.28;;;3.48;100.00
11936;BME280;6027;48.576;9.180;2023-11-18T06:54:07;97716.00;;;3.47;100.00
11936;BME280;6027;48.576;9.180;2023-11-18T06:56:37;97714.38;;;3.57;100.00
11936;BME280;6027;48.576;9.180;2023-11-18T06:59:12;97707.84;;;3.63;100.00
11936;BME280;6027;48.576;9.180;2023-11-18T07:01:39;97710.56;;;3.61;100.00
11936;BME280;6027;48.576;9.180;2023-11-18T07:04:14;97700.69;;;3.65;100.00
11936;BME280;6027;48.576;9.180;2023-11-18T07:06:39;97697.34;;;3.63;100.00
11936;BME280;6027;48.576;9.180;2023-11-18T07:09:07;97697.47;;;3.72;100.00
11936;BME280;6027;48.576;9.180;2023-11-18T07:11:43;97689.75;;;3.82;100.00
11936;BME280;6027;48.576;9.180;2023-11-18T07:14:09;97686.03;;;3.85;100.00
11936;BME280;6027;48.576;9.180;2023-11-18T07:16:38;97689.94;;;3.90;100.00
11936;BME280;6027;48.576;9.180;2023-11-18T07:19:04;97690.91;;;3.89;100.00
11936;BME280;6027;48.576;9.180;2023-11-18T07:21:29;97688.53;;;3.97;100.00
11936;BME280;6027;48.576;9.180;2023-11-18T07:23:55;97708.19;;;4.03;100.00
11936;BME280;6027;48.576;9.180;2023-11-18T07:26:21;97718.38;;;4.06;100.00
11936;BME280;6027;48.576;9.180;2023-11-18T07:28:47;97726.00;;;4.09;100.00
11936;BME280;6027;48.576;9.180;2023-11-18T07:31:12;97727.81;;;4.08;100.00
11936;BME280;6027;48.576;9.180;2023-11-18T07:33:38;97726.59;;;4.12;100.00
11936;BME280;6027;48.576;9.180;2023-11-18T07:36:03;97739.25;;;4.19;100.00
11936;BME280;6027;48.576;9.180;2023-11-18T07:38:31;97721.50;;;4.22;100.00
11936;BME280;6027;48.576;9.180;2023-11-18T07:40:57;97723.84;;;4.25;100.00
11936;BME280;6027;48.576;9.180;2023-11-18T07:43:23;97721.81;;;4.29;100.00
11936;BME280;6027;48.576;9.180;2023-11-18T07:45:49;97718.59;;;4.25;100.00
11936;BME280;6027;48.576;9.180;2023-11-18T07:48:17;97721.50;;;4.22;100.00
11936;BME280;6027;48.576;9.180;2023-11-18T07:50:44;97722.69;;;4.18;100.00
11936;BME280;6027;48.576;9.180;2023-11-18T07:53:15;97718.41;;;4.17;100.00
11936;BME280;6027;48.576;9.180;2023-11-18T07:55:41;97712.91;;;4.09;100.00
11936;BME280;6027;48.576;9.180;2023-11-18T07:58:11;97711.56;;;4.26;100.00
11936;BME280;6027;48.576;9.180;2023-11-18T08:00:43;97709.81;;;4.15;100.00
11936;BME280;6027;48.576;9.180;2023-11-18T08:03:10;97704.69;;;4.13;100.00
11936;BME280;6027;48.576;9.180;2023-11-18T08:05:44;97701.94;;;4.15;100.00
11936;BME280;6027;48.576;9.180;2023-11-18T08:08:13;97719.22;;;4.06;100.00
11936;BME280;6027;48.576;9.180;2023-11-18T08:10:40;97722.09;;;4.03;100.00
11936;BME280;6027;48.576;9.180;2023-11-18T08:13:09;97724.59;;;4.05;100.00
11936;BME280;6027;48.576;9.180;2023-11-18T08:15:38;97721.59;;;4.09;100.00
11936;BME280;6027;48.576;9.180;2023-11-18T08:18:05;97715.19;;;4.13;100.00
11936;BME280;6027;48.576;9.180;2023-11-18T08:20:31;97716.97;;;4.13;100.00
11936;BME280;6027;48.576;9.180;2023-11-18T08:22:57;97719.22;;;4.18;100.00
11936;BME280;6027;48.576;9.180;2023-11-18T08:25:22;97716.13;;;4.12;100.00
11936;BME280;6027;48.576;9.180;2023-11-18T08:27:52;97723.97;;;4.24;100.00
11936;BME280;6027;48.576;9.180;2023-11-18T08:30:19;97730.63;;;4.28;100.00
11936;BME280;6027;48.576;9.180;2023-11-18T08:32:46;97725.16;;;4.31;100.00
11936;BME280;6027;48.576;9.180;2023-11-18T08:35:12;97718.94;;;4.32;100.00
11936;BME280;6027;48.576;9.180;2023-11-18T08:37:39;97724.91;;;4.34;100.00
11936;BME280;6027;48.576;9.180;2023-11-18T08:40:06;97733.25;;;4.39;100.00
11936;BME280;6027;48.576;9.180;2023-11-18T08:42:46;97730.75;;;4.37;100.00
11936;BME280;6027;48.576;9.180;2023-11-18T08:45:28;97731.69;;;4.25;100.00
11936;BME280;6027;48.576;9.180;2023-11-18T08:48:04;97714.31;;;4.24;100.00
11936;BME280;6027;48.576;9.180;2023-11-18T08:50:34;97717.41;;;4.29;100.00
11936;BME280;6027;48.576;9.180;2023-11-18T08:53:01;97724.44;;;4.40;100.00
11936;BME280;6027;48.576;9.180;2023-11-18T08:55:33;97729.19;;;4.24;100.00
11936;BME280;6027;48.576;9.180;2023-11-18T08:58:08;97725.38;;;4.28;100.00
11936;BME280;6027;48.576;9.180;2023-11-18T09:00:55;97718.47;;;4.38;100.00
11936;BME280;6027;48.576;9.180;2023-11-18T09:03:26;97713.53;;;4.44;100.00
11936;BME280;6027;48.576;9.180;2023-11-18T09:06:03;97717.84;;;4.45;100.00
11936;BME280;6027;48.576;9.180;2023-11-18T09:08:37;97708.41;;;4.43;100.00
11936;BME280;6027;48.576;9.180;2023-11-18T09:11:05;97704.28;;;4.40;100.00
11936;BME280;6027;48.576;9.180;2023-11-18T09:13:32;97699.13;;;4.50;100.00
11936;BME280;6027;48.576;9.180;2023-11-18T09:16:01;97701.44;;;4.64;100.00
11936;BME280;6027;48.576;9.180;2023-11-18T09:18:30;97700.59;;;4.64;100.00
11936;BME280;6027;48.576;9.180;2023-11-18T09:20:57;97698.44;;;4.69;100.00
11936;BME280;6027;48.576;9.180;2023-11-18T09:23:27;97710.84;;;4.78;100.00
11936;BME280;6027;48.576;9.180;2023-11-18T09:25:55;97707.88;;;4.71;100.00
11936;BME280;6027;48.576;9.180;2023-11-18T09:28:23;97701.78;;;4.71;100.00
11936;BME280;6027;48.576;9.180;2023-11-18T09:30:53;97712.38;;;4.80;100.00
11936;BME280;6027;48.576;9.180;2023-11-18T09:33:23;97706.00;;;4.83;100.00
11936;BME280;6027;48.576;9.180;2023-11-18T09:35:59;97713.22;;;4.70;100.00
11936;BME280;6027;48.576;9.180;2023-11-18T09:38:32;97709.16;;;4.77;100.00
11936;BME280;6027;48.576;9.180;2023-11-18T09:41:01;97712.69;;;4.87;100.00
11936;BME280;6027;48.576;9.180;2023-11-18T09:43:31;97720.78;;;4.95;100.00
11936;BME280;6027;48.576;9.180;2023-11-18T09:51:44;97715.19;;;5.09;100.00
11936;BME280;6027;48.576;9.180;2023-11-18T09:54:54;97712.00;;;5.27;100.00
11936;BME280;6027;48.576;9.180;2023-11-18T09:57:32;97701.38;;;5.28;100.00
11936;BME280;6027;48.576;9.180;2023-11-18T10:00:11;97701.00;;;5.33;100.00
11936;BME280;6027;48.576;9.180;2023-11-18T10:02:52;97697.06;;;5.27;100.00
11936;BME280;6027;48.576;9.180;2023-11-18T10:05:22;97696.31;;;5.36;100.00
11936;BME280;6027;48.576;9.180;2023-11-18T10:07:48;97694.41;;;5.38;100.00
11936;BME280;6027;48.576;9.180;2023-11-18T10:10:15;97693.28;;;5.41;100.00
11936;BME280;6027;48.576;9.180;2023-11-18T10:15:11;97696.00;;;5.60;100.00
11936;BME280;6027;48.576;9.180;2023-11-18T10:17:42;97700.22;;;5.72;100.00
11936;BME280;6027;48.576;9.180;2023-11-18T10:20:23;97703.84;;;5.81;100.00
11936;BME280;6027;48.576;9.180;2023-11-18T10:23:10;97692.94;;;5.85;100.00
11936;BME280;6027;48.576;9.180;2023-11-18T10:25:36;97688.44;;;5.97;100.00
11936;BME280;6027;48.576;9.180;2023-11-18T10:28:07;97687.78;;;5.95;100.00
11936;BME280;6027;48.576;9.180;2023-11-18T10:30:43;97684.31;;;5.95;100.00
11936;BME280;6027;48.576;9.180;2023-11-18T10:33:14;97685.06;;;5.85;100.00
11936;BME280;6027;48.576;9.180;2023-11-18T10:35:49;97693.75;;;6.07;100.00
11936;BME280;6027;48.576;9.180;2023-11-18T10:38:16;97694.31;;;6.20;100.00
11936;BME280;6027;48.576;9.180;2023-11-18T10:40:42;97697.53;;;6.23;100.00
11936;BME280;6027;48.576;9.180;2023-11-18T10:43:11;97692.38;;;6.12;100.00
11936;BME280;6027;48.576;9.180;2023-11-18T10:45:36;97691.03;;;6.28;100.00
11936;BME280;6027;48.576;9.180;2023-11-18T10:48:06;97694.78;;;6.35;100.00
11936;BME280;6027;48.576;9.180;2023-11-18T10:50:32;97696.59;;;6.34;100.00
11936;BME280;6027;48.576;9.180;2023-11-18T10:53:02;97696.84;;;6.41;100.00
11936;BME280;6027;48.576;9.180;2023-11-18T10:55:35;97701.41;;;6.39;100.00
11936;BME280;6027;48.576;9.180;2023-11-18T10:58:02;97688.44;;;6.47;100.00
11936;BME280;6027;48.576;9.180;2023-11-18T11:00:46;97680.66;;;6.55;100.00
11936;BME280;6027;48.576;9.180;2023-11-18T11:03:13;97683.31;;;6.55;100.00
11936;BME280;6027;48.576;9.180;2023-11-18T11:05:39;97679.59;;;6.67;100.00
11936;BME280;6027;48.576;9.180;2023-11-18T11:08:08;97660.19;;;6.58;100.00
11936;BME280;6027;48.576;9.180;2023-11-18T11:10:34;97654.34;;;6.55;100.00
11936;BME280;6027;48.576;9.180;2023-11-18T11:13:01;97655.06;;;6.57;100.00
11936;BME280;6027;48.576;9.180;2023-11-18T11:15:31;97653.97;;;6.69;100.00
11936;BME280;6027;48.576;9.180;2023-11-18T11:18:04;97657.84;;;6.65;100.00
11936;BME280;6027;48.576;9.180;2023-11-18T11:20:37;97651.47;;;6.68;100.00
11936;BME280;6027;48.576;9.180;2023-11-18T11:31:48;97671.13;;;6.64;100.00
11936;BME280;6027;48.576;9.180;2023-11-18T11:34:19;97670.31;;;6.63;100.00
11936;BME280;6027;48.576;9.180;2023-11-18T11:36:49;97666.00;;;6.62;100.00
11936;BME280;6027;48.576;9.180;2023-11-18T11:39:19;97662.13;;;6.66;100.00
11936;BME280;6027;48.576;9.180;2023-11-18T11:41:52;97660.19;;;6.68;100.00
11936;BME280;6027;48.576;9.180;2023-11-18T11:44:20;97657.56;;;6.58;100.00
11936;BME280;6027;48.576;9.180;2023-11-18T11:46:47;97637.59;;;6.56;100.00
11936;BME280;6027;48.576;9.180;2023-11-18T11:49:20;97651.31;;;6.59;100.00
11936;BME280;6027;48.576;9.180;2023-11-18T11:51:54;97642.47;;;6.70;100.00
11936;BME280;6027;48.576;9.180;2023-11-18T11:54:26;97647.03;;;6.68;100.00
11936;BME280;6027;48.576;9.180;2023-11-18T11:56:57;97637.59;;;6.75;100.00
11936;BME280;6027;48.576;9.180;2023-11-18T12:02:17;97619.47;;;6.82;100.00
11936;BME280;6027;48.576;9.180;2023-11-18T12:04:46;97627.38;;;6.72;100.00
11936;BME280;6027;48.576;9.180;2023-11-18T12:07:17;97626.78;;;6.78;100.00
11936;BME280;6027;48.576;9.180;2023-11-18T12:09:42;97612.41;;;6.82;100.00
11936;BME280;6027;48.576;9.180;2023-11-18T12:12:22;97608.78;;;6.83;100.00
11936;BME280;6027;48.576;9.180;2023-11-18T12:14:57;97605.75;;;6.78;100.00
11936;BME280;6027;48.576;9.180;2023-11-18T12:17:26;97607.41;;;6.79;100.00
11936;BME280;6027;48.576;9.180;2023-11-18T12:19:57;97602.28;;;6.78;100.00
11936;BME280;6027;48.576;9.180;2023-11-18T12:23:03;97601.88;;;6.82;100.00
11936;BME280;6027;48.576;9.180;2023-11-18T12:25:40;97586.06;;;6.82;100.00
11936;BME280;6027;48.576;9.180;2023-11-18T12:28:30;97583.31;;;6.84;100.00
11936;BME280;6027;48.576;9.180;2023-11-18T12:31:03;97575.00;;;6.79;100.00
11936;BME280;6027;48.576;9.180;2023-11-18T12:41:42;97545.66;;;6.64;100.00
11936;BME280;6027;48.576;9.180;2023-11-18T12:46:59;97539.84;;;6.70;100.00
11936;BME280;6027;48.576;9.180;2023-11-18T12:49:40;97537.19;;;6.80;100.00
11936;BME280;6027;48.576;9.180;2023-11-18T12:52:08;97533.69;;;6.89;100.00
11936;BME280;6027;48.576;9.180;2023-11-18T12:54:34;97535.38;;;6.80;100.00
11936;BME280;6027;48.576;9.180;2023-11-18T12:57:02;97542.75;;;6.67;100.00
11936;BME280;6027;48.576;9.180;2023-11-18T12:59:33;97544.53;;;6.76;100.00
11936;BME280;6027;48.576;9.180;2023-11-18T13:01:58;97536.53;;;6.68;100.00
11936;BME280;6027;48.576;9.180;2023-11-18T13:04:24;97524.44;;;6.75;100.00
11936;BME280;6027;48.576;9.180;2023-11-18T13:06:50;97511.97;;;6.77;100.00
11936;BME280;6027;48.576;9.180;2023-11-18T13:09:17;97519.84;;;6.87;100.00
11936;BME280;6027;48.576;9.180;2023-11-18T13:11:57;97533.81;;;6.97;100.00
11936;BME280;6027;48.576;9.180;2023-11-18T13:14:27;97521.03;;;7.02;100.00
11936;BME280;6027;48.576;9.180;2023-11-18T13:16:54;97513.97;;;7.03;100.00
11936;BME280;6027;48.576;9.180;2023-11-18T13:19:26;97519.50;;;7.09;100.00
11936;BME280;6027;48.576;9.180;2023-11-18T13:22:00;97532.53;;;7.11;100.00
11936;BME280;6027;48.576;9.180;2023-11-18T13:24:29;97546.81;;;7.08;100.00
11936;BME280;6027;48.576;9.180;2023-11-18T13:26:57;97535.00;;;7.12;100.00
11936;BME280;6027;48.576;9.180;2023-11-18T13:29:23;97529.06;;;7.10;100.00
11936;BME280;6027;48.576;9.180;2023-11-18T13:31:50;97517.28;;;7.05;100.00
11936;BME280;6027;48.576;9.180;2023-11-18T13:34:19;97522.72;;;7.03;100.00
11936;BME280;6027;48.576;9.180;2023-11-18T13:36:48;97526.59;;;6.99;100.00
11936;BME280;6027;48.576;9.180;2023-11-18T13:39:16;97514.53;;;6.97;100.00
11936;BME280;6027;48.576;9.180;2023-11-18T13:41:43;97503.78;;;6.80;100.00
11936;BME280;6027;48.576;9.180;2023-11-18T13:44:34;97500.75;;;6.85;100.00
11936;BME280;6027;48.576;9.180;2023-11-18T13:47:00;97495.34;;;6.86;100.00
11936;BME280;6027;48.576;9.180;2023-11-18T13:49:31;97495.44;;;6.94;100.00
11936;BME280;6027;48.576;9.180;2023-11-18T13:51:56;97486.88;;;6.83;100.00